• Join FlightAware (Why Join?)
  • Login
  • US Flag 
Rudolph Flight #1: Arrived! 
03:20PM EST


 

Airport Tracker/Info


-or-


 

Live Flight TrackerFlight Track Log ✈ KFS20 ✈ 11-05-2013 ✈ 19A - KYIP

Flight Track Log - Related Links

Times and Time Zones

All times are in EDT time to prevent confusion due to time zone crossing. See the KFS20 flight status page for this flight to view local times or setup timezone preferences in your user account.

Time Position Orientation Groundspeed Altitude Reporting Facility
EDT Latitude Longitude Course Direction KTS MPH feet Rate Location/Type
04:08PM 34.2631 -83.5989 355° North 188 216 3,700  Level Atlanta Center
04:09PM 34.3089 -83.6036 355° North 201 231 5,300 1,680 Climbing Atlanta Center
04:10PM 34.3633 -83.6083 356° North 206 237 7,100 1,740 Climbing Atlanta Center
04:11PM 34.4175 -83.6183 351° North 193 222 8,800 900 Climbing Atlanta Center
04:12PM 34.4781 -83.6206 358° North 209 241 9,000 60 Climbing Atlanta Center
04:13PM 34.5386 -83.6378 347° North 222 255 9,000 600 Level Atlanta Center
04:14PM 34.5950 -83.6578 344° North 222 255 10,300 1,440 Climbing Atlanta Center
04:15PM 34.6494 -83.6803 341° North 212 244 11,900 1,440 Climbing Atlanta Center
04:16PM 34.7017 -83.6978 345° North 202 232 13,200 1,200 Climbing Atlanta Center
04:17PM 34.7497 -83.7153 343° North 190 219 14,400 1,080 Climbing Atlanta Center
04:18PM 34.7997 -83.7378 340° North 195 224 15,400 1,080 Climbing Atlanta Center
04:19PM 34.8519 -83.7578 343° North 190 219 16,600 1,200 Climbing Atlanta Center
04:20PM 34.9064 -83.7728 347° North 196 226 17,800 1,200 Climbing Atlanta Center
04:21PM 34.9669 -83.7931 345° North 201 231 19,000 1,140 Climbing Atlanta Center
04:22PM 35.0233 -83.8081 348° North 201 231 20,100 3,000 Climbing Atlanta Center
04:23PM 35.0817 -83.8128 356° North 206 237 25,000 1,080 Climbing Atlanta Center
04:24PM 35.1358 -83.8178 356° North 200 230 22,300 -900 Descending Atlanta Center
04:25PM 35.1903 -83.8228 356° North 200 230 23,300 780 Climbing Atlanta Center
04:26PM 35.2425 -83.8253 358° North 200 230 23,900 300 Climbing Atlanta Center
04:27PM 35.2967 -83.8328 354° North 200 230 24,000  Climbing Atlanta Center
04:28PM 35.3550 -83.8375 356° North 200 230 23,900  Descending Atlanta Center
04:29PM 35.4219 -83.8425 357° North 214 246 24,000  Climbing Atlanta Center
04:30PM 35.4886 -83.8450 358° North 232 267 24,000  Level Atlanta Center
04:31PM 35.5575 -83.8472 358° North 237 273 24,000  Level Atlanta Center
04:32PM 35.6283 -83.8547 355° North 237 273 24,000  Level Atlanta Center
04:33PM 35.6994 -83.8572 358° North 242 278 24,000  Level Atlanta Center
04:34PM 35.7725 -83.8569 360° North 253 291 24,000  Level Atlanta Center
04:35PM 35.8453 -83.8594 358° North 253 291 24,000  Level Atlanta Center
04:36PM 35.9183 -83.8567 North 253 291 24,000  Level Atlanta Center
04:37PM 35.9914 -83.8642 355° North 253 291 24,000  Level Atlanta Center
04:38PM 36.0686 -83.8614 North 253 291 24,000  Level Atlanta Center
04:39PM 36.1458 -83.8561 North 259 298 24,000  Level Atlanta Center
04:40PM 36.2186 -83.8508 North 259 298 24,000  Level Atlanta Center
04:42PM 36.3514 -83.8458 North 265 305 24,000  Level Indianapolis Center
04:43PM 36.4264 -83.8414 North 268 308 24,000 -60 Level Indianapolis Center
04:44PM 36.5000 -83.8350 North 267 307 23,900  Descending Indianapolis Center
04:45PM 36.5756 -83.8353 360° North 265 305 24,000  Climbing Indianapolis Center
04:46PM 36.6469 -83.8439 354° North 256 295 24,000 -60 Level Indianapolis Center
04:47PM 36.7328 -83.8511 356° North 262 302 23,900 -60 Descending Indianapolis Center
04:48PM 36.8058 -83.8625 353° North 263 303 23,900  Level Indianapolis Center
04:49PM 36.8772 -83.8733 353° North 259 298 24,000 -180 Climbing Indianapolis Center
04:50PM 36.9497 -83.8844 353° North 261 300 23,600 -600 Descending Indianapolis Center
04:51PM 37.0250 -83.9031 349° North 272 313 22,900 -780 Descending Indianapolis Center
04:52PM 37.1025 -83.9256 347° North 281 323 22,100 -480 Descending Indianapolis Center
04:53PM 37.1794 -83.9442 349° North 281 323 22,000 -60 Descending Indianapolis Center
04:54PM 37.2547 -83.9617 350° North 273 314 22,000  Level Indianapolis Center
04:55PM 37.3294 -83.9758 351° North 269 310 22,000  Level Indianapolis Center
04:56PM 37.4058 -83.9844 355° North 271 312 22,000  Level Indianapolis Center
04:57PM 37.4903 -84.0006 351° North 262 302 22,000  Level Indianapolis Center
04:58PM 37.5658 -84.0128 353° North 269 310 22,000  Level Indianapolis Center
04:59PM 37.6403 -84.0256 352° North 269 310 22,000  Level Indianapolis Center
05:00PM 37.7142 -84.0375 353° North 267 307 22,000  Level Indianapolis Center
05:01PM 37.7897 -84.0472 354° North 270 311 22,000  Level Indianapolis Center
05:02PM 37.8628 -84.0608 352° North 265 305 22,000  Level Indianapolis Center
05:03PM 37.9375 -84.0692 355° North 268 308 22,000  Level Indianapolis Center
05:04PM 38.0117 -84.0822 352° North 268 308 22,000  Level Indianapolis Center
05:05PM 38.0858 -84.0900 355° North 266 306 22,000  Level Indianapolis Center
05:06PM 38.1611 -84.0978 355° North 271 312 22,000  Level Indianapolis Center
05:07PM 38.2472 -84.1128 352° North 266 306 22,000  Level Indianapolis Center
05:08PM 38.3211 -84.1233 354° North 265 305 22,000  Level Indianapolis Center
05:09PM 38.3950 -84.1336 354° North 265 305 22,000  Level Indianapolis Center
05:10PM 38.4672 -84.1500 350° North 264 304 22,000  Level Indianapolis Center
05:11PM 38.5414 -84.1600 354° North 268 308 22,000  Level Indianapolis Center
05:12PM 38.6167 -84.1725 353° North 269 310 22,000  Level Indianapolis Center
05:13PM 38.6881 -84.1847 352° North 268 308 22,000 -60 Level Indianapolis Center
05:14PM 38.7639 -84.1950 354° North 271 312 21,900 -60 Descending Indianapolis Center
05:15PM 38.8378 -84.2097 351° North 268 308 21,900  Level Indianapolis Center
05:16PM 38.9139 -84.2219 353° North 273 314 22,000  Climbing Indianapolis Center
05:17PM 39.0000 -84.2356 353° North 266 306 21,900 -60 Descending Indianapolis Center
05:18PM 39.0742 -84.2472 353° North 265 305 21,900  Level Indianapolis Center
05:19PM 39.1469 -84.2569 354° North 261 300 21,900  Level Indianapolis Center
05:20PM 39.2242 -84.2706 352° North 275 316 21,900  Level Indianapolis Center
05:21PM 39.2992 -84.2814 354° North 270 311 21,900  Level Indianapolis Center
05:22PM 39.3731 -84.2911 354° North 265 305 21,900  Level Indianapolis Center
05:23PM 39.4483 -84.3019 354° North 268 308 21,900  Level Indianapolis Center
05:24PM 39.5214 -84.3147 352° North 265 305 21,900  Level Indianapolis Center
05:25PM 39.5961 -84.3253 354° North 268 308 21,900  Level Indianapolis Center
05:26PM 39.6683 -84.3428 349° North 262 302 21,900  Level Indianapolis Center
05:28PM 39.7431 -84.3553 353° North 265 305 21,900  Level Indianapolis Center
05:29PM 39.8169 -84.3683 352° North 265 305 22,000  Climbing Indianapolis Center
05:30PM 39.8917 -84.3800 353° North 266 306 22,000  Level Indianapolis Center
05:31PM 39.9664 -84.3869 356° North 267 307 22,000  Level Indianapolis Center
05:32PM 40.0428 -84.4028 351° North 273 314 22,000  Level Indianapolis Center
05:33PM 40.1192 -84.4042 359° North 273 314 22,000  Level Indianapolis Center
05:34PM 40.2083 -84.4097 357° North 271 312 22,000  Level Indianapolis Center
05:35PM 40.2858 -84.4097 360° North 275 316 22,000  Level Indianapolis Center
05:36PM 40.3633 -84.4144 357° North 275 316 22,000  Level Indianapolis Center
05:37PM 40.4414 -84.4186 358° North 277 319 22,000  Level Indianapolis Center
05:38PM 40.5206 -84.4153 North 280 322 22,000  Level Indianapolis Center
05:39PM 40.5994 -84.4158 360° North 281 323 22,000  Level Indianapolis Center
05:40PM 40.6783 -84.4161 360° North 281 323 22,000  Level Indianapolis Center
05:41PM 40.7578 -84.4153 360° North 283 326 22,000  Level Indianapolis Center
05:42PM 40.8361 -84.4161 360° North 281 323 22,000  Level Indianapolis Center
05:42PM 40.8761 -84.4169 359° North 271 312 22,000  Level Cleveland Center
05:43PM 40.9508 -84.4242 356° North 271 312 22,000 -120 Level Cleveland Center
05:44PM 41.0300 -84.4261 359° North 271 312 21,800 -600 Descending Cleveland Center
05:45PM 41.1094 -84.4278 359° North 271 312 20,900 -960 Descending Cleveland Center
05:46PM 41.1903 -84.4356 356° North 276 318 19,900 -1,020 Descending Cleveland Center
05:47PM 41.2675 -84.4344 North 276 318 18,900 -1,080 Descending Cleveland Center
05:48PM 41.3433 -84.4114 13° North 276 318 17,800 -1,140 Descending Cleveland Center
05:49PM 41.4194 -84.3797 17° North 276 318 16,700 -1,140 Descending Cleveland Center
05:50PM 41.4914 -84.3508 17° North 281 323 15,600 -1,140 Descending Cleveland Center
05:51PM 41.5633 -84.3217 17° North 275 316 14,500 -1,140 Descending Cleveland Center
05:52PM 41.6350 -84.2925 17° North 270 311 13,400 -1,080 Descending Cleveland Center
05:53PM 41.6606 -84.2828 16° North 267 307 13,000 -1,440 Descending Cleveland Center
05:53PM 41.7236 -84.2614 14° North 273 314 11,700 -1,380 Descending Cleveland Center
05:54PM 41.7725 -84.2392 19° North 265 305 10,800 -1,560 Descending Cleveland Center
05:55PM 41.8650 -84.2081 14° North 268 308 8,700 -1,800 Descending Cleveland Center
05:56PM 41.9158 -84.1886 16° North 265 305 7,300 -1,560 Descending Cleveland Center
05:57PM 41.9369 -84.1786 19° North 253 291 7,000 -300 Descending Cleveland Center
05:57PM 41.9858 -84.1453 27° Northeast 214 246 7,000 -480 Level Cleveland Center
05:58PM 42.0275 -84.0775 50° Northeast 231 266 6,100 -1,020 Descending Cleveland Center
05:59PM 42.0656 -83.9928 59° Northeast 264 304 5,000 -960 Descending Cleveland Center
06:00PM 42.0992 -83.9192 58° Northeast 227 261 4,200 -540 Descending Cleveland Center
06:02PM 42.1303 -83.8508 58° Northeast 211 243 4,000 -120 Descending Cleveland Center
06:03PM 42.1694 -83.7883 50° Northeast 218 251 4,000  Level Cleveland Center
06:04PM 42.2175 -83.7150 48° Northeast 240 276 4,000  Level Cleveland Center
06:05PM 42.2608 -83.6525 47° Northeast 225 259 4,000 -840 Level Cleveland Center
06:06PM 42.2817 -83.5750 70° East 222 255 2,400 -1,260 Descending Cleveland Center
06:07PM 42.2581 -83.5150 118° Southeast 125 144 1,400 -900 Descending Cleveland Center